Time,TemperatureF,DewpointF,PressureIn,WindDirection,WindDirectionDegrees,WindSpeedMPH,WindSpeedGustMPH,Humidity,HourlyPrecipIn,Conditions,Clouds,dailyrainin,SoftwareType,DateUTC
2017-03-30 00:04:00,44.2,22.0,29.86,SSW,211,8.7,10.5,41,0.00,,OVC140,0.00,VWS V15.00,2017-03-30 07:04:00,
2017-03-30 00:06:00,44.1,22.5,29.86,SSW,206,6.3,6.3,42,0.00,,OVC140,0.00,VWS V15.00,2017-03-30 07:06:00,
2017-03-30 00:11:00,43.9,22.3,29.86,SSW,213,10.1,10.1,42,0.00,,OVC140,0.00,VWS V15.00,2017-03-30 07:11:00,
2017-03-30 00:16:00,43.7,22.1,29.86,SSW,207,8.7,8.7,42,0.00,,OVC140,0.00,VWS V15.00,2017-03-30 07:16:00,
2017-03-30 00:21:00,43.5,22.0,29.86,South,191,8.7,8.7,42,0.00,,OVC140,0.00,VWS V15.00,2017-03-30 07:21:00,
2017-03-30 00:26:00,43.3,22.4,29.86,SW,216,11.0,11.0,43,0.00,,OVC140,0.00,VWS V15.00,2017-03-30 07:26:00,
2017-03-30 00:31:00,43.0,22.0,29.86,SSW,209,10.1,10.1,43,0.00,,OVC140,0.00,VWS V15.00,2017-03-30 07:31:00,
2017-03-30 00:36:00,42.8,21.9,29.86,SSW,203,7.6,8.3,43,0.00,,OVC140,0.00,VWS V15.00,2017-03-30 07:36:00,
2017-03-30 00:46:00,42.4,22.1,29.86,SSW,204,8.3,8.3,44,0.00,,OVC140,0.00,VWS V15.00,2017-03-30 07:46:00,
2017-03-30 00:51:00,42.3,21.9,29.86,SSW,207,5.4,6.3,44,0.00,,OVC140,0.00,VWS V15.00,2017-03-30 07:51:00,
2017-03-30 00:56:00,42.1,21.8,29.86,SSW,212,6.3,6.3,44,0.00,,OVC140,0.00,VWS V15.00,2017-03-30 07:56:00,
2017-03-30 01:01:00,41.9,22.1,29.86,SW,214,7.2,8.3,45,0.00,,OVC140,0.00,VWS V15.00,2017-03-30 08:01:00,
2017-03-30 01:06:00,41.7,22.5,29.86,SSW,213,5.4,7.6,46,0.00,,OVC140,0.00,VWS V15.00,2017-03-30 08:06:00,
2017-03-30 01:11:00,41.7,23.0,29.86,SSW,205,5.4,5.8,47,0.00,,OVC140,0.00,VWS V15.00,2017-03-30 08:11:00,
2017-03-30 01:16:00,41.5,22.8,29.86,SSW,196,5.4,5.8,47,0.00,,OVC140,0.00,VWS V15.00,2017-03-30 08:16:00,
2017-03-30 01:20:00,41.5,23.3,29.86,SSW,213,3.1,4.9,48,0.00,,OVC140,0.00,VWS V15.00,2017-03-30 08:20:00,
2017-03-30 01:25:00,41.7,23.5,29.86,WSW,250,3.1,3.1,48,0.00,,OVC140,0.00,VWS V15.00,2017-03-30 08:25:00,
2017-03-30 01:30:00,41.9,24.1,29.86,SSW,202,2.7,3.1,49,0.00,,OVC140,0.00,VWS V15.00,2017-03-30 08:30:00,
2017-03-30 01:36:00,41.7,24.0,29.86,SSW,203,4.0,5.4,49,0.00,,OVC140,0.00,VWS V15.00,2017-03-30 08:36:00,
2017-03-30 01:41:00,41.7,23.5,29.86,SSW,201,6.3,6.3,48,0.00,,OVC140,0.00,VWS V15.00,2017-03-30 08:41:00,
2017-03-30 01:46:00,41.7,23.5,29.86,SSW,203,3.1,3.1,48,0.00,,OVC140,0.00,VWS V15.00,2017-03-30 08:46:00,
2017-03-30 01:51:00,41.7,23.5,29.86,SW,221,5.4,5.4,48,0.00,,OVC140,0.00,VWS V15.00,2017-03-30 08:51:00,
2017-03-30 01:56:00,41.5,23.3,29.86,SW,217,5.4,5.8,48,0.00,,OVC140,0.00,VWS V15.00,2017-03-30 08:56:00,
2017-03-30 02:01:00,41.5,23.3,29.86,SSW,205,5.4,5.8,48,0.00,,OVC140,0.00,VWS V15.00,2017-03-30 09:01:00,
2017-03-30 02:06:00,41.5,23.3,29.86,SSW,195,4.9,4.9,48,0.00,,OVC140,0.00,VWS V15.00,2017-03-30 09:06:00,
2017-03-30 02:11:00,41.4,23.2,29.86,SSW,198,5.4,6.3,48,0.00,,OVC140,0.00,VWS V15.00,2017-03-30 09:11:00,
2017-03-30 02:16:00,41.2,23.0,29.86,SSW,205,5.4,5.8,48,0.00,,OVC140,0.00,VWS V15.00,2017-03-30 09:16:00,
2017-03-30 02:21:00,41.2,23.0,29.86,SW,222,3.1,4.0,48,0.00,,OVC140,0.00,VWS V15.00,2017-03-30 09:21:00,
2017-03-30 02:26:00,41.2,23.0,29.86,SW,214,5.4,7.6,48,0.00,,OVC140,0.00,VWS V15.00,2017-03-30 09:26:00,
2017-03-30 02:31:00,41.2,23.0,29.86,SSW,212,5.8,6.3,48,0.00,,OVC140,0.00,VWS V15.00,2017-03-30 09:31:00,
2017-03-30 02:36:00,41.0,22.8,29.86,SW,215,4.0,4.0,48,0.00,,OVC140,0.00,VWS V15.00,2017-03-30 09:36:00,
2017-03-30 02:41:00,40.6,22.5,29.86,SW,221,4.9,6.3,48,0.00,,OVC140,0.00,VWS V15.00,2017-03-30 09:41:00,
2017-03-30 02:46:00,40.5,22.3,29.86,SSW,206,5.8,7.6,48,0.00,,OVC140,0.00,VWS V15.00,2017-03-30 09:46:00,
2017-03-30 02:51:00,40.1,22.0,29.86,SSW,202,5.4,5.4,48,0.00,,OVC140,0.00,VWS V15.00,2017-03-30 09:51:00,
2017-03-30 02:56:00,39.9,21.8,29.86,SW,222,5.4,5.4,48,0.00,,OVC140,0.00,VWS V15.00,2017-03-30 09:56:00,
2017-03-30 03:01:00,39.6,21.0,29.86,SSW,202,5.8,5.8,47,0.00,,OVC140,0.00,VWS V15.00,2017-03-30 10:01:00,
2017-03-30 03:06:00,39.2,20.7,29.86,SSW,207,2.7,3.1,47,0.00,,OVC140,0.00,VWS V15.00,2017-03-30 10:06:00,
2017-03-30 03:11:00,38.8,20.4,29.86,SSW,210,4.9,5.4,47,0.00,,OVC140,0.00,VWS V15.00,2017-03-30 10:11:00,
2017-03-30 03:16:00,38.5,20.0,29.86,SSW,210,3.1,3.6,47,0.00,,OVC140,0.00,VWS V15.00,2017-03-30 10:16:00,
2017-03-30 03:21:00,38.1,19.7,29.86,SSW,209,0.0,3.1,47,0.00,,OVC140,0.00,VWS V15.00,2017-03-30 10:21:00,
2017-03-30 03:26:00,37.8,19.4,29.86,SSW,209,3.6,3.6,47,0.00,,OVC140,0.00,VWS V15.00,2017-03-30 10:26:00,
2017-03-30 03:31:00,37.4,19.0,29.86,SSW,209,5.4,5.4,47,0.00,,OVC140,0.00,VWS V15.00,2017-03-30 10:31:00,
2017-03-30 03:36:00,37.0,18.7,29.86,SSW,212,5.4,5.4,47,0.00,,OVC140,0.00,VWS V15.00,2017-03-30 10:36:00,
2017-03-30 03:41:00,37.0,18.7,29.86,SSW,196,3.1,3.6,47,0.00,,OVC140,0.00,VWS V15.00,2017-03-30 10:41:00,
2017-03-30 03:46:00,36.9,19.0,29.86,South,178,4.0,4.0,48,0.00,,OVC140,0.00,VWS V15.00,2017-03-30 10:46:00,
2017-03-30 03:51:00,36.9,19.0,29.86,SSW,202,3.6,5.4,48,0.00,,OVC140,0.00,VWS V15.00,2017-03-30 10:51:00,
2017-03-30 03:56:00,36.7,18.9,29.86,SSW,192,5.4,5.8,48,0.00,,OVC140,0.00,VWS V15.00,2017-03-30 10:56:00,
2017-03-30 04:00:00,36.5,18.7,29.86,South,188,3.6,3.6,48,0.00,,OVC140,0.00,VWS V15.00,2017-03-30 11:00:00,
2017-03-30 04:05:00,36.3,18.5,29.86,SSE,164,4.0,5.4,48,0.00,,OVC140,0.00,VWS V15.00,2017-03-30 11:05:00,
2017-03-30 04:10:00,36.1,18.4,29.86,South,173,3.1,3.6,48,0.00,,OVC140,0.00,VWS V15.00,2017-03-30 11:10:00,
2017-03-30 04:11:00,36.1,18.4,29.86,South,173,3.1,3.1,48,0.00,,OVC140,0.00,VWS V15.00,2017-03-30 11:11:00,
2017-03-30 04:16:00,36.1,18.4,29.86,South,172,4.0,4.0,48,0.00,,OVC140,0.00,VWS V15.00,2017-03-30 11:16:00,
2017-03-30 04:21:00,36.1,18.8,29.86,SSE,153,4.0,4.0,49,0.00,,OVC140,0.00,VWS V15.00,2017-03-30 11:21:00,
2017-03-30 04:26:00,35.8,18.0,29.86,SSE,167,3.6,3.6,48,0.00,,OVC140,0.00,VWS V15.00,2017-03-30 11:26:00,
2017-03-30 04:31:00,35.6,17.9,29.86,South,176,3.6,3.6,48,0.00,,OVC140,0.00,VWS V15.00,2017-03-30 11:31:00,
2017-03-30 04:36:00,35.4,18.2,29.86,SSE,168,4.0,4.9,49,0.00,,OVC140,0.00,VWS V15.00,2017-03-30 11:36:00,
2017-03-30 04:41:00,35.4,18.2,29.86,South,178,3.6,3.6,49,0.00,,OVC140,0.00,VWS V15.00,2017-03-30 11:41:00,
2017-03-30 04:46:00,35.1,17.8,29.86,South,182,3.6,4.9,49,0.00,,OVC140,0.00,VWS V15.00,2017-03-30 11:46:00,
2017-03-30 04:50:00,35.1,17.8,29.86,SSE,166,3.6,4.0,49,0.00,,OVC140,0.00,VWS V15.00,2017-03-30 11:50:00,
2017-03-30 04:56:00,35.2,18.5,29.86,SSE,150,3.1,5.4,50,0.00,,OVC140,0.00,VWS V15.00,2017-03-30 11:56:00,
2017-03-30 05:01:00,35.2,18.5,29.86,SSE,151,3.6,3.6,50,0.00,,OVC140,0.00,VWS V15.00,2017-03-30 12:01:00,
2017-03-30 05:06:00,35.1,18.3,29.86,SSE,153,0.0,0.0,50,0.00,,OVC140,0.00,VWS V15.00,2017-03-30 12:06:00,
2017-03-30 05:11:00,34.9,18.1,29.86,SSE,153,0.0,0.0,50,0.00,,OVC140,0.00,VWS V15.00,2017-03-30 12:11:00,
2017-03-30 05:16:00,34.9,18.1,29.86,SSE,157,4.0,4.0,50,0.00,,OVC140,0.00,VWS V15.00,2017-03-30 12:16:00,
2017-03-30 05:21:00,34.9,18.1,29.86,South,184,5.8,5.8,50,0.00,,OVC140,0.00,VWS V15.00,2017-03-30 12:21:00,
2017-03-30 05:26:00,34.9,18.1,29.86,South,182,5.4,6.3,50,0.00,,OVC140,0.00,VWS V15.00,2017-03-30 12:26:00,
2017-03-30 05:31:00,34.9,18.1,29.86,SSW,197,5.4,5.4,50,0.00,,OVC140,0.00,VWS V15.00,2017-03-30 12:31:00,
2017-03-30 05:36:00,34.9,18.1,29.86,SSE,168,7.2,7.2,50,0.00,,OVC140,0.00,VWS V15.00,2017-03-30 12:36:00,
2017-03-30 05:41:00,34.9,18.6,29.86,SSE,155,6.3,6.3,51,0.00,,OVC140,0.00,VWS V15.00,2017-03-30 12:41:00,
2017-03-30 05:46:00,34.9,18.6,29.86,SSE,154,2.7,3.1,51,0.00,,OVC140,0.00,VWS V15.00,2017-03-30 12:46:00,
2017-03-30 05:51:00,34.5,17.8,29.86,SSE,159,3.1,3.1,50,0.00,,OVC140,0.00,VWS V15.00,2017-03-30 12:51:00,
2017-03-30 05:56:00,34.3,17.6,29.86,SSE,149,5.8,5.8,50,0.00,,OVC140,0.00,VWS V15.00,2017-03-30 12:56:00,
2017-03-30 06:01:00,34.3,18.1,29.86,SSE,152,5.8,5.8,51,0.00,,OVC140,0.00,VWS V15.00,2017-03-30 13:01:00,
2017-03-30 06:06:00,34.3,18.1,29.86,SSE,160,3.6,3.6,51,0.00,,OVC140,0.00,VWS V15.00,2017-03-30 13:06:00,
2017-03-30 06:11:00,34.3,18.1,29.86,SSE,154,3.1,3.1,51,0.00,,OVC140,0.00,VWS V15.00,2017-03-30 13:11:00,
2017-03-30 06:16:00,34.2,17.9,29.86,SE,138,3.1,3.1,51,0.00,,OVC140,0.00,VWS V15.00,2017-03-30 13:16:00,
2017-03-30 06:21:00,34.0,17.8,29.86,South,189,4.9,4.9,51,0.00,,OVC140,0.00,VWS V15.00,2017-03-30 13:21:00,
2017-03-30 06:26:00,33.8,17.1,29.86,SSE,162,3.6,3.6,50,0.00,,OVC140,0.00,VWS V15.00,2017-03-30 13:26:00,
2017-03-30 06:31:00,33.6,17.4,29.86,SE,131,0.0,2.7,51,0.00,,OVC140,0.00,VWS V15.00,2017-03-30 13:31:00,
2017-03-30 06:36:00,33.6,17.4,29.86,SE,124,0.0,0.0,51,0.00,,OVC140,0.00,VWS V15.00,2017-03-30 13:36:00,
2017-03-30 06:41:00,33.6,17.4,29.86,SE,124,0.0,0.0,51,0.00,,OVC140,0.00,VWS V15.00,2017-03-30 13:41:00,
2017-03-30 06:46:00,33.4,17.3,29.86,SE,124,0.0,0.0,51,0.00,,OVC140,0.00,VWS V15.00,2017-03-30 13:46:00,
2017-03-30 06:51:00,33.3,17.1,29.86,SE,124,0.0,0.0,51,0.00,,OVC140,0.00,VWS V15.00,2017-03-30 13:51:00,
2017-03-30 06:56:00,33.3,17.1,29.86,SE,124,0.0,0.0,51,0.00,,OVC140,0.00,VWS V15.00,2017-03-30 13:56:00,
2017-03-30 07:01:00,33.3,17.1,29.89,SSE,150,3.1,3.1,51,0.00,,OVC140,0.00,VWS V15.00,2017-03-30 14:01:00,
2017-03-30 07:06:00,33.6,17.4,29.89,SSE,160,3.1,3.1,51,0.00,,OVC140,0.00,VWS V15.00,2017-03-30 14:06:00,
2017-03-30 07:11:00,33.8,17.6,29.89,SSE,164,0.0,0.0,51,0.00,,OVC140,0.00,VWS V15.00,2017-03-30 14:11:00,
2017-03-30 07:16:00,34.0,17.8,29.89,SSE,164,0.0,0.0,51,0.00,,OVC140,0.00,VWS V15.00,2017-03-30 14:16:00,
2017-03-30 07:21:00,34.2,17.9,29.89,ESE,109,3.1,3.1,51,0.00,,OVC140,0.00,VWS V15.00,2017-03-30 14:21:00,
2017-03-30 07:26:00,34.3,18.1,29.89,ESE,110,0.0,0.0,51,0.00,,OVC140,0.00,VWS V15.00,2017-03-30 14:26:00,
2017-03-30 07:31:00,34.5,18.3,29.89,ESE,110,0.0,0.0,51,0.00,,OVC140,0.00,VWS V15.00,2017-03-30 14:31:00,
2017-03-30 07:36:00,34.7,18.9,29.89,ESE,106,0.0,0.0,52,0.00,,OVC140,0.00,VWS V15.00,2017-03-30 14:36:00,
2017-03-30 07:41:00,34.9,19.1,29.89,SE,124,2.7,2.7,52,0.00,,OVC140,0.00,VWS V15.00,2017-03-30 14:41:00,
2017-03-30 07:46:00,35.1,19.2,29.89,SE,142,4.0,4.0,52,0.00,,OVC140,0.00,VWS V15.00,2017-03-30 14:46:00,
2017-03-30 07:51:00,35.4,19.6,29.89,SE,137,2.7,3.6,52,0.00,,OVC140,0.00,VWS V15.00,2017-03-30 14:51:00,
2017-03-30 07:56:00,35.8,19.9,29.89,ESE,123,0.0,0.0,52,0.00,,OVC140,0.00,VWS V15.00,2017-03-30 14:56:00,
2017-03-30 08:01:00,36.1,20.2,29.89,SE,142,2.7,2.7,52,0.00,,OVC140,0.00,VWS V15.00,2017-03-30 15:01:00,
2017-03-30 08:06:00,36.5,20.6,29.89,SSE,167,5.4,5.4,52,0.00,,OVC140,0.00,VWS V15.00,2017-03-30 15:06:00,
2017-03-30 08:10:00,36.9,20.9,29.89,SSW,200,5.4,5.4,52,0.00,,OVC140,0.00,VWS V15.00,2017-03-30 15:10:00,
2017-03-30 08:15:00,37.0,21.1,29.89,SSW,193,4.0,4.9,52,0.00,,OVC140,0.00,VWS V15.00,2017-03-30 15:15:00,
2017-03-30 08:21:00,37.4,21.4,29.89,SSW,206,7.6,8.7,52,0.00,,OVC140,0.00,VWS V15.00,2017-03-30 15:21:00,
2017-03-30 08:26:00,37.6,21.6,29.89,SSW,204,4.0,5.8,52,0.00,,OVC140,0.00,VWS V15.00,2017-03-30 15:26:00,
2017-03-30 08:31:00,37.9,21.9,29.89,SSW,206,5.8,10.1,52,0.00,,OVC140,0.00,VWS V15.00,2017-03-30 15:31:00,
2017-03-30 08:36:00,38.7,22.6,29.89,South,181,5.8,5.8,52,0.00,,OVC140,0.00,VWS V15.00,2017-03-30 15:36:00,
2017-03-30 08:41:00,39.4,23.2,29.89,SSW,205,8.7,10.1,52,0.00,,OVC140,0.00,VWS V15.00,2017-03-30 15:41:00,
2017-03-30 08:46:00,39.7,23.6,29.92,SW,225,3.6,4.5,52,0.00,,OVC140,0.00,VWS V15.00,2017-03-30 15:46:00,
2017-03-30 08:51:00,39.9,23.3,29.92,SW,222,7.6,7.6,51,0.00,,OVC140,0.00,VWS V15.00,2017-03-30 15:51:00,
2017-03-30 08:56:00,40.1,23.0,29.92,SSE,162,4.0,4.0,50,0.00,,OVC140,0.00,VWS V15.00,2017-03-30 15:56:00,
2017-03-30 09:01:00,40.1,21.0,29.89,South,191,3.6,7.6,46,0.00,,OVC140,0.00,VWS V15.00,2017-03-30 16:01:00,
2017-03-30 09:06:00,40.5,21.3,29.89,South,182,4.9,6.3,46,0.00,,OVC140,0.00,VWS V15.00,2017-03-30 16:06:00,
2017-03-30 09:11:00,40.6,20.5,29.89,SSW,198,7.6,7.6,44,0.00,,OVC140,0.00,VWS V15.00,2017-03-30 16:11:00,
2017-03-30 09:16:00,40.8,19.5,29.92,SW,224,5.4,5.4,42,0.00,,OVC140,0.00,VWS V15.00,2017-03-30 16:16:00,
2017-03-30 09:21:00,41.0,18.0,29.92,SSW,211,2.7,4.0,39,0.00,,OVC140,0.00,VWS V15.00,2017-03-30 16:21:00,
2017-03-30 09:26:00,41.4,17.7,29.92,SSW,203,7.6,7.6,38,0.00,,OVC140,0.00,VWS V15.00,2017-03-30 16:26:00,
2017-03-30 09:31:00,41.7,18.6,29.92,SSW,195,5.4,5.4,39,0.00,,OVC140,0.00,VWS V15.00,2017-03-30 16:31:00,
2017-03-30 09:36:00,41.9,16.3,29.92,SW,218,2.7,2.7,35,0.00,,OVC140,0.00,VWS V15.00,2017-03-30 16:36:00,
2017-03-30 09:41:00,42.1,16.4,29.92,SSW,203,6.3,7.6,35,0.00,,OVC140,0.00,VWS V15.00,2017-03-30 16:41:00,
2017-03-30 09:46:00,42.1,15.1,29.92,South,177,2.7,4.9,33,0.00,,OVC140,0.00,VWS V15.00,2017-03-30 16:46:00,
2017-03-30 09:51:00,42.4,15.4,29.92,SW,220,3.6,5.8,33,0.00,,OVC140,0.00,VWS V15.00,2017-03-30 16:51:00,
2017-03-30 09:56:00,42.8,14.3,29.92,WSW,240,4.0,5.8,31,0.00,,OVC140,0.00,VWS V15.00,2017-03-30 16:56:00,
2017-03-30 10:00:00,42.6,12.6,29.92,SW,233,5.8,5.8,29,0.00,,OVC140,0.00,VWS V15.00,2017-03-30 17:00:00,
2017-03-30 10:05:00,43.0,13.7,29.92,SSW,195,5.4,5.4,30,0.00,,OVC140,0.00,VWS V15.00,2017-03-30 17:05:00,
2017-03-30 10:10:00,43.3,13.2,29.92,SW,218,5.8,5.8,29,0.00,,OVC140,0.00,VWS V15.00,2017-03-30 17:10:00,
2017-03-30 10:15:00,43.3,13.2,29.95,SW,235,5.4,5.4,29,0.00,,OVC140,0.00,VWS V15.00,2017-03-30 17:15:00,
2017-03-30 10:20:00,43.9,14.5,29.95,SSW,206,4.0,4.0,30,0.00,,OVC140,0.00,VWS V15.00,2017-03-30 17:20:00,
2017-03-30 10:25:00,44.2,14.8,29.95,SSW,203,5.4,6.7,30,0.00,,OVC140,0.00,VWS V15.00,2017-03-30 17:25:00,
2017-03-30 10:30:00,44.4,14.2,29.95,WSW,239,2.7,5.4,29,0.00,,OVC140,0.00,VWS V15.00,2017-03-30 17:30:00,